Nearby METAR Reports

 

KW29 - Stevensville, Maryland, USA
Distance from station: SSW 13mi, 21km
Updated: Wed, 21-Aug-2019 12:40am EDT
Clear
Clear
 Wind from SSW
Wind: SSW 8 mph , 13 km/h
Temperature: 79°F , 26°C
Dew Point: 70°F , 21°C
Humidity: 74%
Barometer: 30.05 inHg , 1017.6 hPa
Clouds: Clear
Visibility: 10 miles , 16 km
2019/08/21 04:40 KW29 210440Z AUTO 20007KT 10SM CLR 26/21 A3005 RMK AO2 P0011
KMTN - Baltimore/Martin, Maryland, USA
Distance from station: NW 13mi, 22km
Updated: Wed, 21-Aug-2019 12:42am EDT
Clear
Clear
 Wind from S
Wind: S 5 mph , 7 km/h
Temperature: 77°F , 25°C
Dew Point: 72°F , 22°C
Humidity: 83%
Barometer: 30.06 inHg , 1017.9 hPa
Clouds: Clear
Visibility: 10 miles , 16 km
2019/08/21 04:42 KMTN 210442Z AUTO 18004KT 10SM CLR 25/22 A3006 RMK AO2
 
KNAK - Annapolis/Naval, Maryland, USA
Distance from station: SW 18mi, 28km
Updated: Wed, 21-Aug-2019 12:54am EDT
Clear
Clear
 Wind from S
Wind: S 7 mph , 11 km/h
Temperature: 79°F , 26°C
Dew Point: 70°F , 21°C
Humidity: 74%
Barometer: 30.03 inHg , 1016.9 hPa
Clouds: Clear
Visibility: 10 miles , 16 km
2019/08/21 04:54 KNAK 210454Z AUTO 17006KT 10SM CLR 26/21 A3003 RMK AO2 SLP171 T02610211 403500256 $
KAPG - Aberdeen/Phillip, Maryland, USA
Distance from station: NNE 21mi, 34km
Updated: Tue, 20-Aug-2019 7:51pm EDT
NOT Current
Overcast
Overcast
 Wind from S
Wind: S 3 mph , 6 km/h
Temperature: 81°F , 27°C
Heat Index: 85°F , 29°C
Dew Point: 72°F , 22°C
Humidity: 74%
Barometer: 30.03 inHg , 1016.9 hPa
Clouds: Overcast
Visibility: 10 miles , 16 km
Cloud details: Overcast 7000 ft
2019/08/20 23:51 KAPG 202351Z 19003KT 10SM OVC070 27/22 A3003
 
KDMH - Baltimore/Dwntwn, Maryland, USA
Distance from station: WNW 21mi, 34km
Updated: Wed, 21-Aug-2019 12:54am EDT

 
Temperature: 75°F , 24°C
Dew Point: 68°F , 20°C
Humidity: 78%
Barometer: 30.05 inHg , 1017.6 hPa
2019/08/21 04:54 KDMH 210454Z AUTO 24/20 A3005 RMK AO1 SLP176 T02440200 403390244
KBWI - Balto/Wash Intl, Maryland, USA
Distance from station: W 23mi, 37km
Updated: Wed, 21-Aug-2019 12:54am EDT
Partly cloudy
Partly cloudy
 Wind from W
Wind: W 7 mph , 11 km/h
Temperature: 72°F , 22°C
Dew Point: 68°F , 20°C
Humidity: 88%
Barometer: 30.04 inHg , 1017.3 hPa
Clouds: Partly cloudy
Visibility: 10 miles , 16 km
Cloud details: Partly cloudy 14000 ft
Partly cloudy 25000 ft
2019/08/21 04:54 KBWI 210454Z 27006KT 10SM SCT140 SCT250 22/20 A3004 RMK AO2 SLP172 T02220200 403610222
 
KESN - Easton/Newnam, Maryland, USA
Distance from station: SSE 27mi, 44km
Updated: Wed, 21-Aug-2019 1:00am EDT
Clear
Clear
 Wind from SSW
Wind: SSW 6 mph , 9 km/h
Temperature: 75°F , 24°C
Dew Point: 73°F , 23°C
Humidity: 94%
Barometer: 30.08 inHg , 1018.6 hPa
Clouds: Clear
Visibility: 10 miles , 16 km
2019/08/21 05:00 KESN 210500Z AUTO 20005KT 10SM CLR 24/23 A3008 RMK AO2 T02440225
KFME - Fort Meade, Maryland, USA
Distance from station: WSW 28mi, 45km
Updated: Wed, 21-Aug-2019 12:42am EDT
Clear
Clear
 Wind from calm
Wind: Calm
Temperature: 68°F , 20°C
Dew Point: 68°F , 20°C
Humidity: 100%
Barometer: 30.07 inHg , 1018.3 hPa
Clouds: Clear
Visibility: 10 miles , 16 km
2019/08/21 04:42 KFME 210442Z AUTO 00000KT 10SM CLR 20/20 A3007 RMK AO1
 
KCGS - College Park, Maryland, USA
Distance from station: WSW 38mi, 61km
Updated: Wed, 21-Aug-2019 12:43am EDT
Clear
Clear
 Wind from calm
Wind: Calm
Temperature: 72°F , 22°C
Dew Point: 70°F , 21°C
Humidity: 94%
Barometer: 30.05 inHg , 1017.6 hPa
Clouds: Clear
Visibility: 10 miles , 16 km
2019/08/21 04:43 KCGS 210443Z AUTO 00000KT 10SM CLR 22/21 A3005 RMK AO1 T02170206
KADW - Andrews Afb, Maryland, USA
Distance from station: SW 41mi, 66km
Updated: Wed, 21-Aug-2019 12:56am EDT
Clear
Clear
 Wind from calm
Wind: Calm
Temperature: 72°F , 22°C
Dew Point: 68°F , 20°C
Humidity: 88%
Barometer: 30.04 inHg , 1017.3 hPa
Clouds: Clear
Visibility: 10 miles , 16 km
2019/08/21 04:56 KADW 210456Z AUTO 00000KT 10SM CLR 22/20 A3004 RMK AO2 SLP177 T02150201 403330210 $
 
KDOV - Dover Afb, Delaware, USA
Distance from station: E 42mi, 68km
Updated: Wed, 21-Aug-2019 12:56am EDT
Few Clouds
Few Clouds
 Wind from SW
Wind: SW 8 mph , 13 km/h
Temperature: 77°F , 25°C
Dew Point: 70°F , 21°C
Humidity: 79%
Barometer: 30.03 inHg , 1016.9 hPa
Clouds: Few Clouds
Visibility: 10 miles , 16 km
Cloud details: Few Clouds 2200 ft
2019/08/21 04:56 KDOV 210456Z AUTO 22007KT 10SM FEW022 25/21 A3003 RMK AO2 PRESFR SLP172 T02450212 403230228 $
KCGE - Cambridge-Dorch, Maryland, USA
Distance from station: SSE 45mi, 73km
Updated: Wed, 21-Aug-2019 12:40am EDT
Overcast
Overcast
 Wind from calm
Wind: Calm
Temperature: 73°F , 23°C
Dew Point: 73°F , 23°C
Humidity: 100%
Barometer: 30.04 inHg , 1017.3 hPa
Clouds: Overcast
Visibility: 8 miles , 13 km
Cloud details: Few Clouds 6000 ft
Mostly cloudy 7500 ft
Overcast 9500 ft
2019/08/21 04:40 KCGE 210440Z AUTO 00000KT 8SM FEW060 BKN075 OVC095 23/23 A3004 RMK A01
 
KDCA - Washington/Natl, Washington D.c., USA
Distance from station: WSW 47mi, 76km
Updated: Wed, 21-Aug-2019 12:52am EDT
Mostly cloudy
Mostly cloudy
 Wind from WSW
Wind: WSW 5 mph , 7 km/h
Temperature: 73°F , 23°C
Dew Point: 66°F , 19°C
Humidity: 78%
Barometer: 30.05 inHg , 1017.6 hPa
Clouds: Mostly cloudy
Visibility: 10 miles , 16 km
Cloud details: Few Clouds 5500 ft
Mostly cloudy 25000 ft
2019/08/21 04:52 KDCA 210452Z 25004KT 10SM FEW055 BKN250 23/19 A3005 RMK AO2 SLP176 T02330194 403560233 $
KGAI - Gaithersburg, Maryland, USA
Distance from station: W 49mi, 78km
Updated: Wed, 21-Aug-2019 12:56am EDT
Clear
Clear
 Wind from S
Wind: S 5 mph , 7 km/h
Temperature: 72°F , 22°C
Dew Point: 68°F , 20°C
Humidity: 88%
Barometer: 30.07 inHg , 1018.3 hPa
Clouds: Clear
Visibility: 10 miles , 16 km
2019/08/21 04:56 KGAI 210456Z AUTO 17004KT 10SM CLR 22/20 A3007 RMK AO2 SLP192 T02170200 403390206 PNO $
 
KILG - Wilmington, Delaware, USA
Distance from station: NE 49mi, 79km
Updated: Wed, 21-Aug-2019 12:51am EDT
Clear
Clear
 Wind from SSW
Wind: SSW 6 mph , 9 km/h
Temperature: 77°F , 25°C
Dew Point: 72°F , 22°C
Humidity: 83%
Barometer: 30.05 inHg , 1017.6 hPa
Clouds: Clear
Visibility: 10 miles , 16 km
2019/08/21 04:51 KILG 210451Z AUTO 21005KT 10SM CLR 25/22 A3005 RMK AO2 SLP175 T02500217 403280228
KDMW - Carroll Cnty, Maryland, USA
Distance from station: NW 50mi, 80km
Updated: Wed, 21-Aug-2019 12:40am EDT
Clear
Clear
 Wind from SSE
Wind: SSE 3 mph , 6 km/h
Temperature: 75°F , 24°C
Dew Point: 70°F , 21°C
Humidity: 83%
Barometer: 30.07 inHg , 1018.3 hPa
Clouds: Clear
Visibility: 10 miles , 16 km
2019/08/21 04:40 KDMW 210440Z AUTO 15003KT 10SM CLR 24/21 A3007 RMK AO2